This is the latest recevied weather packets stored in our database for station/object N5GC-2. If no packets are shown the sender has not sent any weather packets the latest 10 day(s).
| Time | Temp. | Humidity | Pressure | Rain* | Wind** | Luminosity | Snow |
|---|---|---|---|---|---|---|---|
| 1777605372 | 12.22° C | 59% | - | 0 mm | - | - | - |
| 1777605069 | 12.22° C | 59% | - | 0 mm | - | - | - |
| 1777604764 | 12.78° C | 59% | - | 0 mm | - | - | - |
| 1777604462 | 12.78° C | 59% | - | 0 mm | - | - | - |
| 1777604161 | 12.78° C | 59% | - | 0 mm | - | - | - |
| 1777603858 | 12.78° C | 58% | - | 0 mm | - | - | - |
| 1777603554 | 12.78° C | 59% | - | 0 mm | - | - | - |
| 1777603250 | 12.78° C | 57% | - | 0 mm | - | - | - |
| 1777602946 | 13.33° C | 58% | - | 0 mm | - | - | - |
| 1777602641 | 13.33° C | 57% | - | 0 mm | - | - | - |
| 1777602336 | 13.33° C | 57% | - | 0 mm | - | - | - |
| 1777602033 | 13.33° C | 58% | - | 0 mm | - | - | - |
| 1777601423 | 13.33° C | 58% | - | 0 mm | - | - | - |
| 1777587168 | 18.89° C | 43% | - | 0 mm | - | - | - |
| 1777583828 | 20° C | 40% | - | 0 mm | - | - | - |
| 1777583217 | 20° C | 42% | - | 0 mm | - | - | - |
| 1777582912 | 20.56° C | 40% | - | 0 mm | - | - | - |
| 1777582610 | 20.56° C | 41% | - | 0 mm | - | - | - |
| 1777581087 | 20.56° C | 40% | - | 0 mm | - | - | - |
| 1777580786 | 20° C | 42% | - | 0 mm | - | - | - |
| 1777580182 | 20° C | 41% | - | 0 mm | - | - | - |
| 1777579279 | 20° C | 39% | - | 0 mm | - | - | - |
| 1777578061 | 20° C | 39% | - | 0 mm | - | - | - |
| 1777577761 | 19.44° C | 44% | - | 0 mm | - | - | - |
| 1777577155 | 19.44° C | 41% | - | 0 mm | - | - | - |
* Rain latest hour (hover to see other rain measurements)
** Current wind speed in m/s (hover to see current wind gust speed)